Time;durP1;ratioP1;P1;durP2;ratioP2;P2;SDS_P1;SDS_P2;PMS_P1;PMS_P2;Temp;Humidity;BMP_temperature;BMP_pressure;BME280_temperature;BME280_humidity;BME280_pressure;Samples;Min_cycle;Max_cycle;Signal;HPM_P1;HPM_P2
2024/04/25 00:02:00;;;;;;;;;;;5.90;99.90;;;;;;5474377;26;19929;-79
2024/04/25 00:04:27;;;;;;;;;;;6.00;99.90;;;;;;5415675;26;19929;-78
2024/04/25 00:06:54;;;;;;;;;;;6.00;99.90;;;;;;5413506;26;19929;-78
2024/04/25 00:09:21;;;;;;;;;;;6.00;99.90;;;;;;5444347;26;19960;-79
2024/04/25 00:11:48;;;;;;;;;;;5.90;99.90;;;;;;5413692;26;19936;-78
2024/04/25 00:14:17;;;;;;;;;;;5.80;99.90;;;;;;5432883;26;19929;-79
2024/04/25 00:16:44;;;;;;;;;;;5.80;99.90;;;;;;5443837;26;20261;-78
2024/04/25 00:19:11;;;;;;;;;;;5.80;99.90;;;;;;5385395;26;19929;-81
2024/04/25 00:21:38;;;;;;;;;;;5.80;99.90;;;;;;5408738;26;19977;-79
2024/04/25 00:24:05;;;;;;;;;;;5.70;99.90;;;;;;5415593;26;20244;-79
2024/04/25 00:26:32;;;;;;;;;;;5.70;99.90;;;;;;5384359;26;19939;-80
2024/04/25 00:28:59;;;;;;;;;;;5.60;99.90;;;;;;5384199;26;19936;-78
2024/04/25 00:31:26;;;;;;;;;;;5.50;99.90;;;;;;5377971;26;20242;-79
2024/04/25 00:33:53;;;;;;;;;;;5.60;99.90;;;;;;5418085;26;19941;-79
2024/04/25 00:36:21;;;;;;;;;;;5.60;99.90;;;;;;5414169;26;20316;-80
2024/04/25 00:38:47;;;;;;;;;;;5.70;99.90;;;;;;5383624;26;20292;-79
2024/04/25 00:41:14;;;;;;;;;;;5.70;99.90;;;;;;5411247;26;19929;-76
2024/04/25 00:43:41;;;;;;;;;;;5.70;99.90;;;;;;5378065;26;19930;-76
2024/04/25 00:46:08;;;;;;;;;;;5.80;99.90;;;;;;5349434;26;19958;-76
2024/04/25 00:48:34;;;;;;;;;;;5.80;99.90;;;;;;5367289;26;19929;-77
2024/04/25 00:51:03;;;;;;;;;;;5.70;99.90;;;;;;5377566;26;19929;-76
2024/04/25 00:53:30;;;;;;;;;;;5.80;99.90;;;;;;5363679;26;19958;-76
2024/04/25 00:55:57;;;;;;;;;;;5.80;99.90;;;;;;5378689;26;19930;-76
2024/04/25 00:58:24;;;;;;;;;;;5.80;99.90;;;;;;5378185;26;19933;-76
2024/04/25 01:00:51;;;;;;;;;;;5.80;99.90;;;;;;5370062;26;19995;-75
2024/04/25 01:03:18;;;;;;;;;;;5.80;99.90;;;;;;5443598;26;19933;-76
2024/04/25 01:05:44;;;;;;;;;;;5.90;99.90;;;;;;5443351;26;19937;-77
2024/04/25 01:08:12;;;;;;;;;;;5.90;99.90;;;;;;5413015;26;19928;-76
2024/04/25 01:10:38;;;;;;;;;;;5.90;99.90;;;;;;5416372;26;19934;-76
2024/04/25 01:13:06;;;;;;;;;;;5.90;99.90;;;;;;5393191;26;19941;-75
2024/04/25 01:15:33;;;;;;;;;;;5.90;99.90;;;;;;5430707;26;19949;-76
2024/04/25 01:18:00;;;;;;;;;;;5.90;99.90;;;;;;5383816;26;19936;-76
2024/04/25 01:20:27;;;;;;;;;;;5.90;99.90;;;;;;5425471;26;19937;-77
2024/04/25 01:22:54;;;;;;;;;;;5.90;99.90;;;;;;5478956;26;19993;-75
2024/04/25 01:25:21;;;;;;;;;;;5.90;99.90;;;;;;5473644;26;19929;-78
2024/04/25 01:27:48;;;;;;;;;;;6.00;99.90;;;;;;5448365;26;19974;-76
2024/04/25 01:30:15;;;;;;;;;;;5.90;99.90;;;;;;5442864;26;19929;-76
2024/04/25 01:32:41;;;;;;;;;;;5.90;99.90;;;;;;5401405;26;19937;-77
2024/04/25 01:35:09;;;;;;;;;;;5.90;99.90;;;;;;5411815;26;19929;-75
2024/04/25 01:37:36;;;;;;;;;;;5.90;99.90;;;;;;5435417;26;19956;-76
2024/04/25 01:40:03;;;;;;;;;;;6.00;99.90;;;;;;5447797;26;19929;-77
2024/04/25 01:42:30;;;;;;;;;;;5.90;99.90;;;;;;5382968;26;19963;-76
2024/04/25 01:44:57;;;;;;;;;;;6.00;99.90;;;;;;5443062;26;19995;-76
2024/04/25 01:47:24;;;;;;;;;;;6.00;99.90;;;;;;5455006;26;19929;-76
2024/04/25 01:49:51;;;;;;;;;;;6.00;99.90;;;;;;5448109;26;19940;-76
2024/04/25 01:52:18;;;;;;;;;;;5.80;99.90;;;;;;5448566;26;19936;-75
2024/04/25 01:54:45;;;;;;;;;;;5.80;99.90;;;;;;5418622;26;19935;-76
2024/04/25 01:57:12;;;;;;;;;;;5.80;99.90;;;;;;5442699;26;19937;-76
2024/04/25 01:59:39;;;;;;;;;;;5.80;99.90;;;;;;5442736;26;19936;-76
2024/04/25 02:02:05;;;;;;;;;;;5.90;99.90;;;;;;5436474;26;19940;-76
2024/04/25 02:04:32;;;;;;;;;;;5.80;99.90;;;;;;5448365;26;19939;-76
2024/04/25 02:06:59;;;;;;;;;;;5.80;99.90;;;;;;5474489;26;19944;-76
2024/04/25 02:09:26;;;;;;;;;;;5.80;99.90;;;;;;5478403;26;19941;-78
2024/04/25 02:11:53;;;;;;;;;;;5.70;99.90;;;;;;5448971;26;19929;-77
2024/04/25 02:14:20;;;;;;;;;;;5.80;99.90;;;;;;5456426;26;19936;-78
2024/04/25 02:16:46;;;;;;;;;;;5.70;99.90;;;;;;5446883;26;19940;-78
2024/04/25 02:19:13;;;;;;;;;;;5.70;99.90;;;;;;5439852;26;19937;-78
2024/04/25 02:27:15;;;;;;;;;;;5.80;99.90;;;;;;5457157;26;19930;-80
2024/04/25 02:29:42;;;;;;;;;;;5.90;99.90;;;;;;5436620;26;19929;-79
2024/04/25 02:32:09;;;;;;;;;;;5.90;99.90;;;;;;5408124;26;20572;-78
2024/04/25 02:34:35;;;;;;;;;;;5.90;99.90;;;;;;5409537;26;19956;-78
2024/04/25 02:37:02;;;;;;;;;;;5.80;99.90;;;;;;5412700;26;19963;-79
2024/04/25 02:39:28;;;;;;;;;;;5.80;99.90;;;;;;5438054;26;19936;-78
2024/04/25 02:41:55;;;;;;;;;;;5.80;99.90;;;;;;5439061;26;19929;-78
2024/04/25 02:44:22;;;;;;;;;;;5.70;99.90;;;;;;5350785;26;20552;-79
2024/04/25 02:46:49;;;;;;;;;;;5.60;99.90;;;;;;5410149;26;19995;-79
2024/04/25 02:49:16;;;;;;;;;;;5.70;99.90;;;;;;5398981;26;19928;-78
2024/04/25 02:51:43;;;;;;;;;;;5.80;99.90;;;;;;5385668;26;19929;-78
2024/04/25 02:54:10;;;;;;;;;;;5.80;99.90;;;;;;5415966;26;19941;-78
2024/04/25 02:56:36;;;;;;;;;;;5.80;99.90;;;;;;5413194;26;19929;-79
2024/04/25 02:59:03;;;;;;;;;;;5.80;99.90;;;;;;5414670;26;19956;-78
2024/04/25 03:01:31;;;;;;;;;;;5.80;99.90;;;;;;5378769;26;19930;-79
2024/04/25 03:03:58;;;;;;;;;;;5.80;99.90;;;;;;5387682;26;20438;-78
2024/04/25 03:06:25;;;;;;;;;;;5.80;99.90;;;;;;5378905;26;19933;-78
2024/04/25 03:08:52;;;;;;;;;;;5.90;99.90;;;;;;5383408;26;20323;-79
2024/04/25 03:11:19;;;;;;;;;;;5.80;99.90;;;;;;5423205;26;19935;-78
2024/04/25 03:13:44;;;;;;;;;;;5.80;99.90;;;;;;5415091;26;19940;-78
2024/04/25 03:16:11;;;;;;;;;;;5.80;99.90;;;;;;5448072;26;19935;-78
2024/04/25 03:18:38;;;;;;;;;;;5.80;99.90;;;;;;5428868;26;20360;-78
2024/04/25 03:21:05;;;;;;;;;;;5.90;99.90;;;;;;5453777;26;20242;-78
2024/04/25 03:23:36;;;;;;;;;;;5.90;99.90;;;;;;5446029;26;19994;-79
2024/04/25 03:26:03;;;;;;;;;;;5.80;99.90;;;;;;5490177;26;20336;-79
2024/04/25 03:28:31;;;;;;;;;;;5.80;99.90;;;;;;5423903;26;20260;-78
2024/04/25 03:30:58;;;;;;;;;;;5.70;99.90;;;;;;5447494;26;19940;-78
2024/04/25 03:33:25;;;;;;;;;;;5.70;99.90;;;;;;5423597;26;20252;-78
2024/04/25 03:35:52;;;;;;;;;;;5.70;99.90;;;;;;5423379;26;19952;-78
2024/04/25 03:38:18;;;;;;;;;;;5.70;99.90;;;;;;5453870;26;20337;-78
2024/04/25 03:40:44;;;;;;;;;;;5.70;99.90;;;;;;5453513;26;19934;-78
2024/04/25 03:43:11;;;;;;;;;;;5.60;99.90;;;;;;5453703;26;19928;-78
2024/04/25 03:45:45;;;;;;;;;;;5.50;99.90;;;;;;5452826;26;19952;-78
2024/04/25 03:48:11;;;;;;;;;;;5.50;99.90;;;;;;5485641;26;19939;-78
2024/04/25 03:50:41;;;;;;;;;;;5.50;99.90;;;;;;5461108;26;19928;-77
2024/04/25 03:53:08;;;;;;;;;;;5.50;99.90;;;;;;5429903;26;19935;-78
2024/04/25 03:55:35;;;;;;;;;;;5.40;99.90;;;;;;5444588;26;19928;-79
2024/04/25 03:58:02;;;;;;;;;;;5.20;99.90;;;;;;5429620;26;19993;-78
2024/04/25 04:00:29;;;;;;;;;;;5.10;99.90;;;;;;5453023;26;19960;-78
2024/04/25 04:02:56;;;;;;;;;;;5.20;99.90;;;;;;5475086;26;19939;-78
2024/04/25 04:05:23;;;;;;;;;;;5.30;99.90;;;;;;5459449;26;19928;-77
2024/04/25 04:07:50;;;;;;;;;;;5.30;99.90;;;;;;5430194;26;19964;-78
2024/04/25 04:10:17;;;;;;;;;;;5.30;99.90;;;;;;5483413;26;19944;-78
2024/04/25 04:12:43;;;;;;;;;;;5.40;99.90;;;;;;5452962;26;19935;-79
2024/04/25 04:15:10;;;;;;;;;;;5.40;99.90;;;;;;5484128;26;19936;-77
2024/04/25 04:17:36;;;;;;;;;;;5.30;99.90;;;;;;5480086;26;19940;-78
2024/04/25 04:20:03;;;;;;;;;;;5.20;99.90;;;;;;5423563;26;19957;-78
2024/04/25 04:22:30;;;;;;;;;;;5.20;99.90;;;;;;5424497;26;19955;-78
2024/04/25 04:24:57;;;;;;;;;;;5.10;99.90;;;;;;5423106;26;19994;-78
2024/04/25 04:27:24;;;;;;;;;;;5.20;99.90;;;;;;5412144;26;20430;-78
2024/04/25 04:29:51;;;;;;;;;;;5.20;99.90;;;;;;5447696;26;19933;-78
2024/04/25 04:32:18;;;;;;;;;;;5.30;99.90;;;;;;5392925;26;19978;-79
2024/04/25 04:34:45;;;;;;;;;;;5.20;99.90;;;;;;5417717;26;19934;-79
2024/04/25 04:37:12;;;;;;;;;;;5.20;99.90;;;;;;5481411;26;19928;-79
2024/04/25 04:39:38;;;;;;;;;;;5.30;99.90;;;;;;5452764;26;19929;-79
2024/04/25 04:42:05;;;;;;;;;;;5.30;99.90;;;;;;5488630;26;19928;-78
2024/04/25 04:44:32;;;;;;;;;;;5.30;99.90;;;;;;5457952;26;19928;-78
2024/04/25 04:46:58;;;;;;;;;;;5.30;99.90;;;;;;5490478;26;19955;-79
2024/04/25 04:49:26;;;;;;;;;;;5.40;99.90;;;;;;5452705;26;20326;-79
2024/04/25 04:51:53;;;;;;;;;;;5.30;99.90;;;;;;5397738;26;19935;-79
2024/04/25 04:54:19;;;;;;;;;;;5.40;99.90;;;;;;5445943;26;19934;-78
2024/04/25 04:56:46;;;;;;;;;;;5.30;99.90;;;;;;5427064;26;19936;-79
2024/04/25 04:59:13;;;;;;;;;;;5.40;99.90;;;;;;5458245;26;19934;-79
2024/04/25 05:01:40;;;;;;;;;;;5.30;99.90;;;;;;5458079;26;19952;-79
2024/04/25 05:04:06;;;;;;;;;;;5.30;99.90;;;;;;5457725;26;19956;-80
2024/04/25 05:06:33;;;;;;;;;;;5.20;99.90;;;;;;5452818;26;19928;-78
2024/04/25 05:09:00;;;;;;;;;;;5.20;99.90;;;;;;5441146;26;19956;-79
2024/04/25 05:11:29;;;;;;;;;;;5.20;99.90;;;;;;5427608;26;19939;-79
2024/04/25 05:13:56;;;;;;;;;;;5.20;99.90;;;;;;5452227;26;19928;-78
2024/04/25 05:16:23;;;;;;;;;;;5.30;99.90;;;;;;5422015;26;19937;-79
2024/04/25 05:18:50;;;;;;;;;;;5.30;99.90;;;;;;5398659;26;19937;-79
2024/04/25 05:21:18;;;;;;;;;;;5.30;99.90;;;;;;5416104;26;20419;-79
2024/04/25 05:23:44;;;;;;;;;;;5.20;99.90;;;;;;5437292;26;19940;-79
2024/04/25 05:26:13;;;;;;;;;;;5.20;99.90;;;;;;5409943;26;19961;-79
2024/04/25 05:28:40;;;;;;;;;;;5.20;99.90;;;;;;5380091;26;19929;-79
2024/04/25 05:31:07;;;;;;;;;;;5.20;99.90;;;;;;5424500;26;19961;-79
2024/04/25 05:33:34;;;;;;;;;;;5.20;99.90;;;;;;5385368;26;19936;-79
2024/04/25 05:36:01;;;;;;;;;;;5.20;99.90;;;;;;5415940;26;19936;-79
2024/04/25 05:38:29;;;;;;;;;;;5.20;99.90;;;;;;5415988;26;19939;-79
2024/04/25 05:40:56;;;;;;;;;;;5.30;99.90;;;;;;5415313;26;20055;-79
2024/04/25 05:43:22;;;;;;;;;;;5.30;99.90;;;;;;5443239;26;20253;-79
2024/04/25 05:45:49;;;;;;;;;;;5.30;99.90;;;;;;5422717;26;19929;-79
2024/04/25 05:48:15;;;;;;;;;;;5.30;99.90;;;;;;5416168;26;19928;-79
2024/04/25 05:50:42;;;;;;;;;;;5.30;99.90;;;;;;5414509;26;19964;-79
2024/04/25 05:53:09;;;;;;;;;;;5.40;99.90;;;;;;5385987;26;19965;-79
2024/04/25 05:55:38;;;;;;;;;;;5.40;99.90;;;;;;5414121;26;19937;-81
2024/04/25 05:58:05;;;;;;;;;;;5.30;99.90;;;;;;5416384;26;19994;-80
2024/04/25 06:00:32;;;;;;;;;;;5.30;99.90;;;;;;5401495;26;19958;-80
2024/04/25 06:03:00;;;;;;;;;;;5.20;99.90;;;;;;5408729;26;19936;-79
2024/04/25 06:05:27;;;;;;;;;;;5.30;99.90;;;;;;5379408;26;20350;-79
2024/04/25 06:07:54;;;;;;;;;;;5.30;99.90;;;;;;5409428;26;19930;-79
2024/04/25 06:10:21;;;;;;;;;;;5.30;99.90;;;;;;5413584;26;19930;-78
2024/04/25 06:12:51;;;;;;;;;;;5.30;99.90;;;;;;5411627;26;19930;-78
2024/04/25 06:15:20;;;;;;;;;;;5.20;99.90;;;;;;5434968;26;19953;-76
2024/04/25 06:17:46;;;;;;;;;;;5.20;99.90;;;;;;5429848;26;20342;-76
2024/04/25 06:20:21;;;;;;;;;;;5.20;99.90;;;;;;5490981;26;19943;-76
2024/04/25 06:22:52;;;;;;;;;;;5.10;99.90;;;;;;5424787;26;19928;-76
2024/04/25 06:25:19;;;;;;;;;;;5.20;99.90;;;;;;5484988;26;19928;-76
2024/04/25 06:27:46;;;;;;;;;;;5.10;99.90;;;;;;5424247;26;19944;-76
2024/04/25 06:30:22;;;;;;;;;;;5.20;99.90;;;;;;5432478;26;20264;-76
2024/04/25 06:32:49;;;;;;;;;;;5.20;99.90;;;;;;5490972;26;19940;-77
2024/04/25 06:35:16;;;;;;;;;;;5.30;99.90;;;;;;5460161;26;19936;-76
2024/04/25 06:37:46;;;;;;;;;;;5.30;99.90;;;;;;5423955;26;19936;-76
2024/04/25 06:40:17;;;;;;;;;;;5.30;99.90;;;;;;5473434;26;19960;-76
2024/04/25 06:42:46;;;;;;;;;;;5.30;99.90;;;;;;5460064;26;19939;-76
2024/04/25 06:45:13;;;;;;;;;;;5.40;99.90;;;;;;5484273;26;19929;-76
2024/04/25 06:47:41;;;;;;;;;;;5.30;99.90;;;;;;5453715;26;19928;-76
2024/04/25 06:50:13;;;;;;;;;;;5.30;99.90;;;;;;5458592;26;19956;-77
2024/04/25 06:52:39;;;;;;;;;;;5.30;99.90;;;;;;5453550;26;20368;-76
2024/04/25 06:55:13;;;;;;;;;;;5.30;99.90;;;;;;5458752;26;19928;-76
2024/04/25 06:57:40;;;;;;;;;;;5.30;99.90;;;;;;5460278;26;19960;-76
2024/04/25 07:00:07;;;;;;;;;;;5.30;99.90;;;;;;5429876;26;19928;-76
2024/04/25 07:02:39;;;;;;;;;;;5.30;99.90;;;;;;5424058;26;19940;-76
2024/04/25 07:05:06;;;;;;;;;;;5.30;99.90;;;;;;5424534;26;19937;-77
2024/04/25 07:07:33;;;;;;;;;;;5.30;99.90;;;;;;5455693;26;19929;-76
2024/04/25 07:10:00;;;;;;;;;;;5.40;99.90;;;;;;5456980;26;20252;-77
2024/04/25 07:12:30;;;;;;;;;;;5.40;99.90;;;;;;5394755;26;19936;-77
2024/04/25 07:15:01;;;;;;;;;;;5.40;99.90;;;;;;5473857;26;19933;-76
2024/04/25 07:17:28;;;;;;;;;;;5.30;99.90;;;;;;5411555;26;20725;-76
2024/04/25 07:19:55;;;;;;;;;;;5.30;99.90;;;;;;5458785;26;19935;-79
2024/04/25 07:22:22;;;;;;;;;;;5.60;99.90;;;;;;5460699;26;19928;-79
2024/04/25 07:24:48;;;;;;;;;;;5.60;99.90;;;;;;5490158;26;19939;-79
2024/04/25 07:27:16;;;;;;;;;;;5.70;99.90;;;;;;5429123;26;19928;-78
2024/04/25 07:29:46;;;;;;;;;;;5.70;99.90;;;;;;5428828;26;20366;-78
2024/04/25 07:32:16;;;;;;;;;;;5.70;99.90;;;;;;5449419;26;20256;-79
2024/04/25 07:34:43;;;;;;;;;;;5.80;99.90;;;;;;5434654;26;19961;-78
2024/04/25 07:37:10;;;;;;;;;;;5.80;99.90;;;;;;5458696;26;19928;-78
2024/04/25 07:39:37;;;;;;;;;;;5.70;99.90;;;;;;5458981;26;20388;-79
2024/04/25 07:42:03;;;;;;;;;;;5.70;99.90;;;;;;5423424;26;19935;-79
2024/04/25 07:44:29;;;;;;;;;;;5.70;99.90;;;;;;5439600;26;19935;-78
2024/04/25 07:46:56;;;;;;;;;;;5.70;99.90;;;;;;5459694;26;19936;-79
2024/04/25 07:49:23;;;;;;;;;;;5.70;99.90;;;;;;5422927;26;19929;-78
2024/04/25 07:51:50;;;;;;;;;;;5.70;99.90;;;;;;5489860;26;19993;-79
2024/04/25 07:54:16;;;;;;;;;;;5.70;99.90;;;;;;5489748;26;19935;-80
2024/04/25 07:56:43;;;;;;;;;;;5.70;99.90;;;;;;5459486;26;19994;-78
2024/04/25 07:59:09;;;;;;;;;;;5.80;99.90;;;;;;5454339;26;19928;-78
2024/04/25 08:01:36;;;;;;;;;;;5.80;99.90;;;;;;5453159;26;19956;-78
2024/04/25 08:04:03;;;;;;;;;;;5.90;99.90;;;;;;5458946;26;19997;-78
2024/04/25 08:06:34;;;;;;;;;;;6.00;99.90;;;;;;5491223;26;19936;-78
2024/04/25 08:09:01;;;;;;;;;;;6.10;99.90;;;;;;5429323;26;20360;-78
2024/04/25 08:11:27;;;;;;;;;;;6.10;99.90;;;;;;5426915;26;19995;-78
2024/04/25 08:13:53;;;;;;;;;;;6.20;99.90;;;;;;5431178;26;20249;-78
2024/04/25 08:16:21;;;;;;;;;;;6.40;99.90;;;;;;5452953;26;19929;-78
2024/04/25 08:18:48;;;;;;;;;;;6.30;99.90;;;;;;5416574;26;19929;-79
2024/04/25 08:21:15;;;;;;;;;;;6.30;99.90;;;;;;5428340;26;19948;-78
2024/04/25 08:23:46;;;;;;;;;;;6.30;99.90;;;;;;5483601;26;20342;-79
2024/04/25 08:26:13;;;;;;;;;;;6.40;99.90;;;;;;5445568;26;20392;-78
2024/04/25 08:28:40;;;;;;;;;;;6.40;99.90;;;;;;5441008;26;19932;-79
2024/04/25 08:31:07;;;;;;;;;;;6.40;99.90;;;;;;5453708;26;19994;-79
2024/04/25 08:33:34;;;;;;;;;;;6.40;99.90;;;;;;5447867;26;19928;-79
2024/04/25 08:36:01;;;;;;;;;;;6.40;99.90;;;;;;5482989;26;19937;-79
2024/04/25 08:38:29;;;;;;;;;;;6.40;99.90;;;;;;5429805;26;19943;-78
2024/04/25 08:40:56;;;;;;;;;;;6.40;99.90;;;;;;5447163;26;19929;-78
2024/04/25 08:43:23;;;;;;;;;;;6.40;99.90;;;;;;5422492;26;20318;-79
2024/04/25 08:45:49;;;;;;;;;;;6.40;99.90;;;;;;5452760;26;19928;-79
2024/04/25 08:48:17;;;;;;;;;;;6.50;99.90;;;;;;5416743;26;19995;-78
2024/04/25 08:50:44;;;;;;;;;;;6.60;99.90;;;;;;5430059;26;19939;-78
2024/04/25 08:53:11;;;;;;;;;;;6.70;99.90;;;;;;5452521;26;19952;-79
2024/04/25 08:55:37;;;;;;;;;;;6.80;99.90;;;;;;5482935;26;20245;-78
2024/04/25 08:58:05;;;;;;;;;;;6.80;99.90;;;;;;5452145;26;20345;-80
2024/04/25 09:00:32;;;;;;;;;;;6.80;99.90;;;;;;5474651;26;19937;-78
2024/04/25 09:02:59;;;;;;;;;;;6.80;99.90;;;;;;5425148;26;19993;-79
2024/04/25 09:05:26;;;;;;;;;;;6.80;99.90;;;;;;5475620;26;19952;-78
2024/04/25 09:07:53;;;;;;;;;;;6.90;99.90;;;;;;5446381;26;19941;-78
2024/04/25 09:10:21;;;;;;;;;;;6.90;99.90;;;;;;5435707;26;19935;-78
2024/04/25 09:12:48;;;;;;;;;;;6.90;99.90;;;;;;5431339;26;19937;-78
2024/04/25 09:15:15;;;;;;;;;;;6.90;99.90;;;;;;5452616;26;20039;-78
2024/04/25 09:17:41;;;;;;;;;;;6.90;99.90;;;;;;5462591;26;20384;-78
2024/04/25 09:20:08;;;;;;;;;;;6.90;99.90;;;;;;5422010;26;19929;-78
2024/04/25 09:22:38;;;;;;;;;;;6.90;99.90;;;;;;5451382;26;19936;-78
2024/04/25 09:25:05;;;;;;;;;;;6.90;99.90;;;;;;5457858;26;20364;-78
2024/04/25 09:27:34;;;;;;;;;;;6.90;99.90;;;;;;5488412;26;19935;-79
2024/04/25 09:30:01;;;;;;;;;;;6.90;99.90;;;;;;5457837;26;20358;-80
2024/04/25 09:32:26;;;;;;;;;;;7.00;99.90;;;;;;5457803;26;20359;-79
2024/04/25 09:34:52;;;;;;;;;;;7.00;99.90;;;;;;5427834;26;19928;-80
2024/04/25 09:37:20;;;;;;;;;;;7.00;99.90;;;;;;5420670;26;19935;-79
2024/04/25 09:39:47;;;;;;;;;;;6.90;99.90;;;;;;5458009;26;19935;-78
2024/04/25 09:42:12;;;;;;;;;;;6.90;99.90;;;;;;5426693;26;19939;-79
2024/04/25 09:44:40;;;;;;;;;;;6.90;99.90;;;;;;5456829;26;19939;-78
2024/04/25 09:47:08;;;;;;;;;;;6.90;99.90;;;;;;5457498;26;20372;-78
2024/04/25 09:49:45;;;;;;;;;;;7.00;99.90;;;;;;5488541;26;19956;-79
2024/04/25 09:52:19;;;;;;;;;;;7.20;99.90;;;;;;5443471;26;19929;-78
2024/04/25 09:54:47;;;;;;;;;;;7.40;99.90;;;;;;5456635;26;19928;-78
2024/04/25 09:57:15;;;;;;;;;;;7.40;99.90;;;;;;5457879;26;20248;-78
2024/04/25 09:59:50;;;;;;;;;;;7.30;99.90;;;;;;5457261;26;19928;-78
2024/04/25 10:02:16;;;;;;;;;;;7.30;99.90;;;;;;5456665;26;19932;-78
2024/04/25 10:04:43;;;;;;;;;;;7.30;99.90;;;;;;5442613;26;20353;-78
2024/04/25 10:07:09;;;;;;;;;;;7.60;99.90;;;;;;5391898;26;19928;-78
2024/04/25 10:09:36;;;;;;;;;;;7.70;99.90;;;;;;5422204;26;19937;-78
2024/04/25 10:12:08;;;;;;;;;;;7.90;99.90;;;;;;5393220;26;20696;-78
2024/04/25 10:14:33;;;;;;;;;;;8.00;99.90;;;;;;5440420;26;19935;-79
2024/04/25 10:17:00;;;;;;;;;;;8.20;99.90;;;;;;5451118;26;19936;-78
2024/04/25 10:19:43;;;;;;;;;;;8.20;99.90;;;;;;5486173;26;19939;-78
2024/04/25 10:22:22;;;;;;;;;;;8.20;99.90;;;;;;5450861;26;19929;-78
2024/04/25 10:24:52;;;;;;;;;;;8.10;99.90;;;;;;5444858;26;19928;-80
2024/04/25 10:27:19;;;;;;;;;;;8.00;99.90;;;;;;5426776;26;19932;-78
2024/04/25 10:29:50;;;;;;;;;;;8.00;99.90;;;;;;5471657;26;19956;-78
2024/04/25 10:32:19;;;;;;;;;;;8.00;99.90;;;;;;5480992;26;20666;-78
2024/04/25 10:34:47;;;;;;;;;;;8.10;99.90;;;;;;5471512;26;20308;-78
2024/04/25 10:37:17;;;;;;;;;;;8.20;99.90;;;;;;5480172;26;19935;-78
2024/04/25 10:39:44;;;;;;;;;;;8.40;99.90;;;;;;5456511;26;19935;-78
2024/04/25 10:42:22;;;;;;;;;;;8.40;99.90;;;;;;5456965;26;19940;-78
2024/04/25 10:44:53;;;;;;;;;;;8.50;99.90;;;;;;5421304;26;19994;-79
2024/04/25 10:47:19;;;;;;;;;;;8.80;99.90;;;;;;5424595;26;19993;-79
2024/04/25 10:49:46;;;;;;;;;;;9.00;99.90;;;;;;5455134;26;19928;-78
2024/04/25 10:52:14;;;;;;;;;;;8.90;99.90;;;;;;5456762;26;19928;-78
2024/04/25 10:54:40;;;;;;;;;;;9.00;99.90;;;;;;5457080;26;19935;-79
2024/04/25 10:57:07;;;;;;;;;;;9.10;99.90;;;;;;5454845;26;20252;-78
2024/04/25 10:59:34;;;;;;;;;;;9.10;99.90;;;;;;5429153;26;19928;-79
2024/04/25 11:02:02;;;;;;;;;;;8.90;99.90;;;;;;5490846;26;20249;-79
2024/04/25 11:04:41;;;;;;;;;;;8.80;99.90;;;;;;5454546;26;20259;-78
2024/04/25 11:07:10;;;;;;;;;;;8.50;99.90;;;;;;5404880;26;20498;-78
2024/04/25 11:09:36;;;;;;;;;;;8.00;99.90;;;;;;5423884;26;19932;-78
2024/04/25 11:12:03;;;;;;;;;;;7.50;99.90;;;;;;5414088;26;19936;-78
2024/04/25 11:14:33;;;;;;;;;;;7.30;99.90;;;;;;5455799;26;19940;-78
2024/04/25 11:17:00;;;;;;;;;;;7.00;99.90;;;;;;5465347;26;19935;-78
2024/04/25 11:19:30;;;;;;;;;;;6.90;99.90;;;;;;5447247;26;19929;-78
2024/04/25 11:21:57;;;;;;;;;;;6.80;99.90;;;;;;5438943;26;19937;-78
2024/04/25 11:24:24;;;;;;;;;;;6.50;99.90;;;;;;5388951;26;19933;-78
2024/04/25 11:26:52;;;;;;;;;;;6.40;99.90;;;;;;5417675;26;20252;-78
2024/04/25 11:29:20;;;;;;;;;;;6.40;99.90;;;;;;5417402;26;19960;-79
2024/04/25 11:31:46;;;;;;;;;;;6.20;99.90;;;;;;5418147;26;19936;-77
2024/04/25 11:34:22;;;;;;;;;;;6.10;99.90;;;;;;5407648;26;20366;-78
2024/04/25 11:37:01;;;;;;;;;;;6.10;99.90;;;;;;5382810;26;19936;-78
2024/04/25 11:39:28;;;;;;;;;;;6.30;99.90;;;;;;5382533;26;19944;-78
2024/04/25 11:41:55;;;;;;;;;;;6.20;99.90;;;;;;5442537;26;20373;-78
2024/04/25 11:44:21;;;;;;;;;;;6.20;99.90;;;;;;5447415;26;19998;-78
2024/04/25 11:46:48;;;;;;;;;;;6.20;99.90;;;;;;5401701;26;19995;-78
2024/04/25 11:49:14;;;;;;;;;;;6.30;99.90;;;;;;5411551;26;19996;-78
2024/04/25 11:51:41;;;;;;;;;;;6.30;99.90;;;;;;5446657;26;19940;-78
2024/04/25 11:54:08;;;;;;;;;;;6.40;99.90;;;;;;5447834;26;20241;-78
2024/04/25 11:56:35;;;;;;;;;;;6.40;99.90;;;;;;5402676;26;19929;-78
2024/04/25 11:59:01;;;;;;;;;;;6.40;99.90;;;;;;5417211;26;19940;-80
2024/04/25 12:01:29;;;;;;;;;;;6.50;99.90;;;;;;5446832;26;19935;-79
2024/04/25 12:03:55;;;;;;;;;;;6.50;99.90;;;;;;5445225;26;19933;-79
2024/04/25 12:06:22;;;;;;;;;;;6.50;99.90;;;;;;5416836;26;19929;-79
2024/04/25 12:08:49;;;;;;;;;;;6.70;99.90;;;;;;5417222;26;19929;-79
2024/04/25 12:11:15;;;;;;;;;;;7.00;99.90;;;;;;5416624;26;19936;-79
2024/04/25 12:13:42;;;;;;;;;;;7.30;99.90;;;;;;5416549;26;19936;-78
2024/04/25 12:16:08;;;;;;;;;;;7.50;99.90;;;;;;5416636;26;19960;-78
2024/04/25 12:18:35;;;;;;;;;;;7.80;99.90;;;;;;5440804;26;20388;-78
2024/04/25 12:21:03;;;;;;;;;;;7.90;99.90;;;;;;5411137;26;19929;-79
2024/04/25 12:23:38;;;;;;;;;;;8.30;99.90;;;;;;5382441;26;19929;-79
2024/04/25 12:26:05;;;;;;;;;;;8.30;99.90;;;;;;5423417;26;19937;-81
2024/04/25 12:28:33;;;;;;;;;;;8.50;99.90;;;;;;5440617;26;19929;-78
2024/04/25 12:31:01;;;;;;;;;;;8.60;99.90;;;;;;5396173;26;19996;-78
2024/04/25 12:33:30;;;;;;;;;;;8.80;99.90;;;;;;5403663;26;19929;-77
2024/04/25 12:35:57;;;;;;;;;;;9.20;99.90;;;;;;5412050;26;19941;-77
2024/04/25 12:38:24;;;;;;;;;;;9.40;99.90;;;;;;5382228;26;19929;-76
2024/04/25 12:40:51;;;;;;;;;;;9.40;99.90;;;;;;5410502;26;19929;-77
2024/04/25 12:43:18;;;;;;;;;;;9.60;99.90;;;;;;5411144;26;19930;-77
2024/04/25 12:45:47;;;;;;;;;;;9.80;99.90;;;;;;5438295;26;19940;-78
2024/04/25 12:48:13;;;;;;;;;;;9.90;99.90;;;;;;5417324;26;19929;-77
2024/04/25 12:50:39;;;;;;;;;;;10.00;99.90;;;;;;5387722;26;19940;-78
2024/04/25 12:53:06;;;;;;;;;;;9.70;99.90;;;;;;5416553;26;19929;-78
2024/04/25 12:55:34;;;;;;;;;;;9.70;99.90;;;;;;5416237;26;19935;-77
2024/04/25 12:58:00;;;;;;;;;;;10.00;99.90;;;;;;5410868;26;20506;-78
2024/04/25 13:00:27;;;;;;;;;;;10.20;99.90;;;;;;5394779;26;19930;-77
2024/04/25 13:02:54;;;;;;;;;;;10.10;99.90;;;;;;5442418;26;20380;-78
2024/04/25 13:05:21;;;;;;;;;;;9.80;99.90;;;;;;5416230;26;19944;-78
2024/04/25 13:07:48;;;;;;;;;;;9.80;99.90;;;;;;5368589;26;19929;-79
2024/04/25 13:10:15;;;;;;;;;;;9.90;99.90;;;;;;5449409;26;19975;-78
2024/04/25 13:12:42;;;;;;;;;;;9.70;99.90;;;;;;5417847;26;19957;-78
2024/04/25 13:15:08;;;;;;;;;;;9.50;99.90;;;;;;5386286;26;19935;-79
2024/04/25 13:17:37;;;;;;;;;;;9.20;99.90;;;;;;5414314;26;19953;-79
2024/04/25 13:20:05;;;;;;;;;;;9.10;99.90;;;;;;5445841;26;19936;-79
2024/04/25 13:22:32;;;;;;;;;;;9.10;99.90;;;;;;5415422;26;19929;-79
2024/04/25 13:25:00;;;;;;;;;;;9.10;99.90;;;;;;5446452;26;20378;-79
2024/04/25 13:27:28;;;;;;;;;;;9.20;99.90;;;;;;5446288;26;19956;-79
2024/04/25 13:29:55;;;;;;;;;;;9.00;99.90;;;;;;5416212;26;20003;-78
2024/04/25 13:32:25;;;;;;;;;;;8.70;99.90;;;;;;5440320;26;19995;-79
2024/04/25 13:34:54;;;;;;;;;;;8.30;99.90;;;;;;5438284;26;19930;-78
2024/04/25 13:37:21;;;;;;;;;;;8.00;99.90;;;;;;5438234;26;19990;-79
2024/04/25 13:39:52;;;;;;;;;;;7.80;99.90;;;;;;5351236;26;20467;-78
2024/04/25 13:42:19;;;;;;;;;;;7.70;99.90;;;;;;5380906;26;19937;-80
2024/04/25 13:44:46;;;;;;;;;;;7.70;99.90;;;;;;5380588;26;20020;-80
2024/04/25 13:47:13;;;;;;;;;;;7.70;99.90;;;;;;5409771;26;20353;-80
2024/04/25 13:49:45;;;;;;;;;;;7.70;99.90;;;;;;5380392;26;19992;-79
2024/04/25 13:52:11;;;;;;;;;;;7.70;99.90;;;;;;5380698;26;20250;-79
2024/04/25 13:54:39;;;;;;;;;;;7.70;99.90;;;;;;5351348;26;19929;-79
2024/04/25 13:57:06;;;;;;;;;;;7.70;99.90;;;;;;5380390;26;19930;-79
2024/04/25 13:59:33;;;;;;;;;;;7.80;99.90;;;;;;5380377;26;19936;-80
2024/04/25 14:02:00;;;;;;;;;;;7.90;99.90;;;;;;5402093;26;19930;-79
2024/04/25 14:04:27;;;;;;;;;;;8.00;99.90;;;;;;5410003;26;19936;-79
2024/04/25 14:06:54;;;;;;;;;;;8.10;99.90;;;;;;5409240;26;19929;-79
2024/04/25 14:09:21;;;;;;;;;;;8.30;99.90;;;;;;5379385;26;19940;-79
2024/04/25 14:11:47;;;;;;;;;;;8.20;99.90;;;;;;5409455;26;19961;-79
2024/04/25 14:14:20;;;;;;;;;;;8.40;99.90;;;;;;5382479;26;20254;-79
2024/04/25 14:16:49;;;;;;;;;;;8.70;99.90;;;;;;5437910;26;19933;-79
2024/04/25 14:19:16;;;;;;;;;;;9.10;99.90;;;;;;5433779;26;19929;-79
2024/04/25 14:21:43;;;;;;;;;;;9.50;99.90;;;;;;5412055;26;19929;-78
2024/04/25 14:24:10;;;;;;;;;;;9.90;99.90;;;;;;5409254;26;20254;-79
2024/04/25 14:29:23;;;;;;;;;;;10.20;99.90;;;;;;5440560;26;19973;-78
2024/04/25 14:31:50;;;;;;;;;;;10.40;99.90;;;;;;5383131;26;19930;-79
2024/04/25 14:34:17;;;;;;;;;;;10.70;99.90;;;;;;5383395;26;19979;-79
2024/04/25 14:36:44;;;;;;;;;;;10.70;99.90;;;;;;5410617;26;19955;-79
2024/04/25 14:39:11;;;;;;;;;;;10.60;99.90;;;;;;5448131;26;20353;-79